Time;durP1;ratioP1;P1;durP2;ratioP2;P2;SDS_P1;SDS_P2;PMS_P1;PMS_P2;Temp;Humidity;BMP_temperature;BMP_pressure;BME280_temperature;BME280_humidity;BME280_pressure;Samples;Min_cycle;Max_cycle;Signal;HPM_P1;HPM_P2
2023/09/14 00:01:11;;;;;;;4.87;2.00;;;8.40;99.90;;;;;;5071390;28;20240;-79
2023/09/14 00:03:38;;;;;;;6.57;2.43;;;8.30;99.90;;;;;;5076219;28;20233;-79
2023/09/14 00:06:05;;;;;;;6.43;2.50;;;8.30;99.90;;;;;;5078876;28;20943;-79
2023/09/14 00:08:33;;;;;;;4.77;2.57;;;8.30;99.90;;;;;;5066816;28;20222;-79
2023/09/14 00:11:03;;;;;;;10.43;2.27;;;8.30;99.90;;;;;;5068681;28;20280;-79
2023/09/14 00:13:30;;;;;;;4.73;1.93;;;8.30;99.90;;;;;;5081493;28;20226;-79
2023/09/14 00:15:57;;;;;;;7.10;2.20;;;8.30;99.90;;;;;;5067398;28;20716;-79
2023/09/14 00:18:24;;;;;;;4.93;2.10;;;8.30;99.90;;;;;;5085152;28;20296;-79
2023/09/14 00:20:52;;;;;;;6.80;2.10;;;8.30;99.90;;;;;;5083725;28;20304;-79
2023/09/14 00:23:20;;;;;;;6.30;2.37;;;8.30;99.90;;;;;;5083948;28;20226;-79
2023/09/14 00:25:48;;;;;;;3.70;2.00;;;8.30;99.90;;;;;;5077359;28;20230;-79
2023/09/14 00:28:15;;;;;;;6.97;2.60;;;8.30;99.90;;;;;;5078667;28;20294;-79
2023/09/14 00:30:42;;;;;;;4.00;2.07;;;8.30;99.90;;;;;;5075053;28;20632;-80
2023/09/14 00:33:12;;;;;;;9.53;2.50;;;8.20;99.90;;;;;;5064716;28;20920;-80
2023/09/14 00:35:38;;;;;;;5.43;1.70;;;8.30;99.90;;;;;;5079045;28;20792;-79
2023/09/14 00:38:05;;;;;;;9.27;2.23;;;8.30;99.90;;;;;;5055195;28;20300;-80
2023/09/14 00:40:32;;;;;;;5.37;1.93;;;8.20;99.90;;;;;;5062358;28;20313;-80
2023/09/14 00:43:00;;;;;;;5.43;1.90;;;8.20;99.90;;;;;;5084358;28;20317;-79
2023/09/14 00:45:27;;;;;;;5.57;2.27;;;8.20;99.90;;;;;;5084838;28;20316;-79
2023/09/14 00:47:57;;;;;;;6.37;2.10;;;8.20;99.90;;;;;;5091347;28;20723;-79
2023/09/14 00:50:24;;;;;;;7.97;2.33;;;8.20;99.90;;;;;;5083031;28;20230;-79
2023/09/14 00:52:55;;;;;;;6.70;2.10;;;8.20;99.90;;;;;;5069420;28;20240;-79
2023/09/14 00:55:23;;;;;;;5.43;1.87;;;8.10;99.90;;;;;;5088449;28;20245;-79
2023/09/14 00:57:50;;;;;;;5.03;2.30;;;8.20;99.90;;;;;;5087287;28;20288;-79
2023/09/14 01:00:19;;;;;;;5.53;2.30;;;8.10;99.90;;;;;;5078983;28;20851;-82
2023/09/14 01:02:47;;;;;;;4.60;2.10;;;8.10;99.90;;;;;;5067143;28;20222;-81
2023/09/14 01:05:14;;;;;;;5.47;1.73;;;8.10;99.90;;;;;;5066418;28;20324;-82
2023/09/14 01:07:41;;;;;;;5.17;1.97;;;8.10;99.90;;;;;;5069650;28;20288;-81
2023/09/14 01:10:10;;;;;;;4.73;2.10;;;8.00;99.90;;;;;;5065422;28;20651;-82
2023/09/14 01:12:37;;;;;;;4.83;2.40;;;8.00;99.90;;;;;;5088079;28;20718;-81
2023/09/14 01:15:09;;;;;;;4.97;1.97;;;8.00;99.90;;;;;;5088665;28;20272;-81
2023/09/14 01:17:41;;;;;;;6.77;1.83;;;8.00;99.90;;;;;;5067035;28;20217;-81
2023/09/14 01:20:24;;;;;;;4.63;1.97;;;8.00;99.90;;;;;;5066483;28;20228;-81
2023/09/14 01:23:01;;;;;;;7.00;2.27;;;8.00;99.90;;;;;;5068137;28;20263;-81
2023/09/14 01:25:41;;;;;;;6.53;1.70;;;8.00;99.90;;;;;;5063058;28;20249;-81
2023/09/14 01:28:10;;;;;;;5.60;1.60;;;8.00;99.90;;;;;;5080720;28;20287;-81
2023/09/14 01:30:37;;;;;;;5.07;2.20;;;8.00;99.90;;;;;;5062846;28;20230;-81
2023/09/14 01:33:05;;;;;;;3.73;1.87;;;7.90;99.90;;;;;;5065355;28;20297;-81
2023/09/14 01:35:37;;;;;;;5.47;2.00;;;7.90;99.90;;;;;;5085234;28;20220;-81
2023/09/14 01:38:06;;;;;;;5.63;1.73;;;7.90;99.90;;;;;;5062383;28;20217;-82
2023/09/14 01:40:36;;;;;;;5.77;1.87;;;8.00;99.90;;;;;;5059678;28;20251;-83
2023/09/14 01:43:04;;;;;;;2.87;1.60;;;7.90;99.90;;;;;;5065001;28;20561;-82
2023/09/14 01:45:32;;;;;;;4.23;1.90;;;7.90;99.90;;;;;;5064192;28;20255;-83
2023/09/14 01:47:59;;;;;;;4.70;1.60;;;7.90;99.90;;;;;;5082894;28;20299;-82
2023/09/14 01:50:25;;;;;;;7.07;2.37;;;7.90;99.90;;;;;;5066000;28;20289;-82
2023/09/14 01:52:53;;;;;;;5.17;1.67;;;7.90;99.90;;;;;;5064411;28;20226;-82
2023/09/14 01:55:20;;;;;;;5.87;2.30;;;7.90;99.90;;;;;;5069972;28;20882;-82
2023/09/14 01:57:48;;;;;;;5.23;1.80;;;7.90;99.90;;;;;;5067182;28;20216;-83
2023/09/14 02:00:16;;;;;;;7.77;1.80;;;7.90;99.90;;;;;;5065961;28;20234;-83
2023/09/14 02:02:43;;;;;;;4.17;1.67;;;7.90;99.90;;;;;;5072887;28;20224;-82
2023/09/14 02:05:10;;;;;;;4.57;1.90;;;8.00;99.90;;;;;;5077325;28;20416;-83
2023/09/14 02:07:37;;;;;;;3.63;1.70;;;7.90;99.90;;;;;;5091942;28;20228;-82
2023/09/14 02:10:05;;;;;;;6.13;2.10;;;7.90;99.90;;;;;;5067748;28;20229;-82
2023/09/14 02:12:32;;;;;;;4.90;1.80;;;7.90;99.90;;;;;;5089954;28;20727;-82
2023/09/14 02:15:00;;;;;;;6.10;1.87;;;7.90;99.90;;;;;;5088958;28;20945;-82
2023/09/14 02:17:30;;;;;;;5.50;1.80;;;7.90;99.90;;;;;;5064566;28;20227;-82
2023/09/14 02:19:58;;;;;;;5.10;1.90;;;7.90;99.90;;;;;;5085827;28;20253;-82
2023/09/14 02:22:25;;;;;;;4.33;1.80;;;7.90;99.90;;;;;;5070069;28;20227;-82
2023/09/14 02:24:52;;;;;;;4.33;1.53;;;7.90;99.90;;;;;;5081744;28;20782;-81
2023/09/14 02:27:19;;;;;;;4.57;1.77;;;7.90;99.90;;;;;;5089305;28;20244;-81
2023/09/14 02:29:46;;;;;;;3.37;1.50;;;7.80;99.90;;;;;;5084930;28;20224;-81
2023/09/14 02:32:15;;;;;;;4.20;1.73;;;7.90;99.90;;;;;;5088309;28;20233;-82
2023/09/14 02:34:41;;;;;;;6.07;1.90;;;7.80;99.90;;;;;;5064986;28;20215;-82
2023/09/14 02:37:09;;;;;;;4.97;1.67;;;7.80;99.90;;;;;;5066931;28;20799;-81
2023/09/14 02:39:35;;;;;;;5.43;2.03;;;7.70;99.90;;;;;;5069620;28;20787;-82
2023/09/14 02:42:02;;;;;;;3.43;1.90;;;7.70;99.90;;;;;;5083535;28;20607;-82
2023/09/14 02:44:32;;;;;;;4.97;2.00;;;7.60;99.90;;;;;;5070745;28;20234;-82
2023/09/14 02:46:59;;;;;;;7.90;2.23;;;7.60;99.90;;;;;;5073282;28;20635;-82
2023/09/14 02:49:27;;;;;;;3.97;1.73;;;7.50;99.90;;;;;;5086051;28;20231;-82
2023/09/14 02:51:54;;;;;;;3.60;1.40;;;7.50;99.90;;;;;;5067402;28;20760;-82
2023/09/14 02:54:21;;;;;;;6.17;1.70;;;7.50;99.90;;;;;;5069437;28;20234;-83
2023/09/14 02:56:48;;;;;;;5.63;1.90;;;7.40;99.90;;;;;;5072308;28;20975;-83
2023/09/14 02:59:17;;;;;;;4.13;1.93;;;7.40;99.90;;;;;;5071974;28;20258;-85
2023/09/14 03:01:44;;;;;;;4.43;1.90;;;7.40;99.90;;;;;;5068013;28;20732;-83
2023/09/14 03:04:14;;;;;;;6.27;1.97;;;7.40;99.90;;;;;;5069528;28;20217;-82
2023/09/14 03:06:42;;;;;;;6.37;2.00;;;7.30;99.90;;;;;;5075251;28;20880;-81
2023/09/14 03:09:08;;;;;;;3.13;1.67;;;7.30;99.90;;;;;;5089834;28;20532;-82
2023/09/14 03:11:35;;;;;;;5.20;1.93;;;7.30;99.90;;;;;;5065119;28;20247;-82
2023/09/14 03:14:02;;;;;;;3.57;1.57;;;7.20;99.90;;;;;;5074307;28;20225;-81
2023/09/14 03:16:29;;;;;;;3.77;1.63;;;7.20;99.90;;;;;;5068854;28;20235;-82
2023/09/14 03:18:57;;;;;;;5.27;1.93;;;7.20;99.90;;;;;;5079677;28;20292;-82
2023/09/14 03:21:26;;;;;;;5.57;1.70;;;7.20;99.90;;;;;;5069407;28;20225;-82
2023/09/14 03:23:56;;;;;;;6.83;2.50;;;7.10;99.90;;;;;;5085588;28;21107;-82
2023/09/14 03:26:25;;;;;;;4.00;2.00;;;7.10;99.90;;;;;;5069465;28;20223;-82
2023/09/14 03:28:52;;;;;;;5.27;2.07;;;7.10;99.90;;;;;;5090439;28;20238;-81
2023/09/14 03:31:19;;;;;;;4.47;1.90;;;7.00;99.90;;;;;;5091478;28;20232;-82
2023/09/14 03:33:47;;;;;;;3.87;1.67;;;7.00;99.90;;;;;;5076421;28;20247;-82
2023/09/14 03:36:14;;;;;;;3.90;1.97;;;6.90;99.90;;;;;;5067790;28;20227;-82
2023/09/14 03:38:41;;;;;;;4.37;1.70;;;6.90;99.90;;;;;;5072241;28;20760;-81
2023/09/14 03:41:10;;;;;;;4.60;2.13;;;6.90;99.90;;;;;;5093316;28;20280;-81
2023/09/14 03:43:37;;;;;;;6.57;2.23;;;6.90;99.90;;;;;;5066798;28;21067;-82
2023/09/14 03:46:04;;;;;;;5.93;1.70;;;6.90;99.90;;;;;;5094245;28;20316;-81
2023/09/14 03:48:31;;;;;;;3.50;1.63;;;6.80;99.90;;;;;;5066299;28;20231;-82
2023/09/14 03:51:00;;;;;;;3.80;1.63;;;6.80;99.90;;;;;;5091224;28;20755;-82
2023/09/14 03:53:27;;;;;;;8.00;2.00;;;6.80;99.90;;;;;;5067718;28;20240;-82
2023/09/14 03:55:54;;;;;;;4.07;2.00;;;6.80;99.90;;;;;;5079188;28;20300;-82
2023/09/14 03:58:23;;;;;;;5.03;2.13;;;6.70;99.90;;;;;;5067224;28;20751;-82
2023/09/14 04:00:50;;;;;;;4.30;1.50;;;6.70;99.90;;;;;;5076434;28;20290;-83
2023/09/14 04:03:18;;;;;;;4.90;1.80;;;6.60;99.90;;;;;;5072959;28;20254;-83
2023/09/14 04:05:44;;;;;;;1.70;1.03;;;6.60;99.90;;;;;;5067131;28;20227;-83
2023/09/14 04:08:11;;;;;;;3.47;1.80;;;6.60;99.90;;;;;;5081671;28;20230;-82
2023/09/14 04:10:38;;;;;;;3.80;1.73;;;6.50;99.90;;;;;;5066036;28;20222;-83
2023/09/14 04:13:30;;;;;;;3.10;1.50;;;6.50;99.90;;;;;;5068102;28;20251;-81
2023/09/14 04:16:02;;;;;;;4.97;2.07;;;6.50;99.90;;;;;;5073557;28;20682;-82
2023/09/14 04:18:33;;;;;;;14.90;2.40;;;6.50;99.90;;;;;;5069373;28;20224;-82
2023/09/14 04:21:00;;;;;;;3.67;2.13;;;6.40;99.90;;;;;;5070605;28;20229;-81
2023/09/14 04:23:29;;;;;;;5.37;2.10;;;6.40;99.90;;;;;;5075994;28;20223;-81
2023/09/14 04:25:56;;;;;;;5.67;1.93;;;6.40;99.90;;;;;;5077942;28;20219;-80
2023/09/14 04:28:23;;;;;;;4.67;1.67;;;6.40;99.90;;;;;;5061594;28;20232;-80
2023/09/14 04:30:53;;;;;;;5.40;1.67;;;6.40;99.90;;;;;;5064972;28;20228;-80
2023/09/14 04:33:21;;;;;;;4.57;1.87;;;6.30;99.90;;;;;;5064044;28;20230;-80
2023/09/14 04:35:48;;;;;;;2.13;1.03;;;6.30;99.90;;;;;;5066140;28;20319;-82
2023/09/14 04:38:15;;;;;;;4.27;2.00;;;6.30;99.90;;;;;;5061736;28;20222;-81
2023/09/14 04:40:47;;;;;;;2.70;1.60;;;6.30;99.90;;;;;;5060620;28;20223;-83
2023/09/14 04:43:15;;;;;;;5.00;1.90;;;6.20;99.90;;;;;;5085858;28;20222;-83
2023/09/14 04:45:42;;;;;;;6.13;2.10;;;6.20;99.90;;;;;;5067447;28;20222;-82
2023/09/14 04:48:11;;;;;;;2.73;1.70;;;6.20;99.90;;;;;;5086818;28;20210;-82
2023/09/14 04:50:37;;;;;;;4.10;1.40;;;6.10;99.90;;;;;;5066442;28;20235;-81
2023/09/14 04:53:04;;;;;;;4.33;1.90;;;6.10;99.90;;;;;;5070761;28;22181;-82
2023/09/14 04:55:31;;;;;;;1.53;1.13;;;6.10;99.90;;;;;;5065021;28;20237;-82
2023/09/14 04:57:58;;;;;;;4.00;2.53;;;6.10;99.90;;;;;;5082750;28;20227;-82
2023/09/14 05:00:25;;;;;;;6.63;2.80;;;6.10;99.90;;;;;;5087415;28;20221;-82
2023/09/14 05:02:53;;;;;;;6.60;2.63;;;6.00;99.90;;;;;;5068091;28;20237;-82
2023/09/14 05:05:21;;;;;;;3.73;1.97;;;6.00;99.90;;;;;;5084777;28;20234;-81
2023/09/14 05:07:48;;;;;;;3.77;1.97;;;6.00;99.90;;;;;;5065365;28;20241;-81
2023/09/14 05:10:16;;;;;;;3.30;1.90;;;6.00;99.90;;;;;;5068068;28;21478;-82
2023/09/14 05:12:43;;;;;;;3.03;1.90;;;6.00;99.90;;;;;;5067082;28;20225;-83
2023/09/14 05:15:10;;;;;;;2.70;1.60;;;6.00;99.90;;;;;;5069520;28;20609;-81
2023/09/14 05:17:37;;;;;;;3.57;1.60;;;6.00;99.90;;;;;;5063834;28;20217;-81
2023/09/14 05:20:07;;;;;;;6.60;3.17;;;6.00;99.90;;;;;;5070860;28;20221;-82
2023/09/14 05:22:38;;;;;;;5.43;2.43;;;6.00;99.90;;;;;;5067905;28;20233;-82
2023/09/14 05:25:05;;;;;;;4.37;2.50;;;6.00;99.90;;;;;;5068951;28;20226;-81
2023/09/14 05:27:36;;;;;;;4.97;2.57;;;6.00;99.90;;;;;;5067636;28;20252;-83
2023/09/14 05:30:04;;;;;;;4.20;2.37;;;6.10;99.90;;;;;;5071757;28;21030;-80
2023/09/14 05:32:31;;;;;;;3.27;2.40;;;6.10;99.90;;;;;;5063937;28;20221;-81
2023/09/14 05:34:59;;;;;;;3.63;2.03;;;6.20;99.90;;;;;;5071323;28;20226;-81
2023/09/14 05:37:26;;;;;;;4.83;2.10;;;6.20;99.90;;;;;;5069971;28;20224;-83
2023/09/14 05:39:55;;;;;;;6.13;2.23;;;6.30;99.90;;;;;;5053547;28;20368;-81
2023/09/14 05:42:23;;;;;;;4.63;2.37;;;6.30;99.90;;;;;;5067938;28;20821;-81
2023/09/14 05:44:50;;;;;;;6.10;2.50;;;6.40;99.90;;;;;;5069810;28;20303;-82
2023/09/14 05:47:17;;;;;;;4.00;2.23;;;6.40;99.90;;;;;;5068531;28;20219;-82
2023/09/14 05:49:45;;;;;;;4.40;2.60;;;6.50;99.90;;;;;;5065200;28;20536;-83
2023/09/14 05:52:12;;;;;;;5.17;2.07;;;6.60;99.90;;;;;;5072699;28;20583;-84
2023/09/14 05:54:40;;;;;;;7.40;3.07;;;6.60;99.90;;;;;;5069937;28;20333;-82
2023/09/14 05:57:09;;;;;;;4.77;2.60;;;6.70;99.90;;;;;;5070042;28;20244;-83
2023/09/14 05:59:37;;;;;;;4.77;2.30;;;6.80;99.90;;;;;;5063904;28;20224;-83
2023/09/14 06:02:06;;;;;;;4.73;2.60;;;6.80;99.90;;;;;;5054777;28;20307;-84
2023/09/14 06:04:33;;;;;;;5.23;2.80;;;6.90;99.90;;;;;;5061039;28;20234;-82
2023/09/14 06:07:00;;;;;;;6.30;2.50;;;7.00;99.90;;;;;;5085644;28;20215;-83
2023/09/14 06:09:29;;;;;;;5.60;2.50;;;7.10;99.90;;;;;;5080147;28;20266;-85
2023/09/14 06:11:56;;;;;;;7.50;2.73;;;7.20;99.90;;;;;;5082384;28;20231;-83
2023/09/14 06:14:25;;;;;;;4.43;2.60;;;7.20;99.90;;;;;;5064100;28;20251;-84
2023/09/14 06:16:52;;;;;;;4.93;2.87;;;7.30;99.90;;;;;;5084879;28;20224;-82
2023/09/14 06:19:19;;;;;;;3.30;2.50;;;7.40;99.90;;;;;;5064898;28;20216;-83
2023/09/14 06:21:46;;;;;;;4.43;2.43;;;7.40;99.90;;;;;;5070183;28;21444;-82
2023/09/14 06:24:12;;;;;;;3.37;2.40;;;7.50;99.90;;;;;;5070295;28;20291;-84
2023/09/14 06:26:39;;;;;;;6.57;2.80;;;7.60;99.90;;;;;;5081308;28;20222;-82
2023/09/14 06:29:06;;;;;;;5.83;2.33;;;7.70;99.90;;;;;;5065668;28;20313;-83
2023/09/14 06:31:34;;;;;;;4.70;2.30;;;7.80;99.90;;;;;;5087228;28;20260;-84
2023/09/14 06:34:01;;;;;;;4.00;2.60;;;7.90;99.90;;;;;;5085436;28;20537;-84
2023/09/14 06:36:27;;;;;;;5.60;2.00;;;8.00;99.90;;;;;;5086668;28;20217;-81
2023/09/14 06:38:54;;;;;;;4.97;2.57;;;8.10;99.90;;;;;;5089790;28;20229;-84
2023/09/14 06:41:21;;;;;;;4.80;1.83;;;8.10;99.90;;;;;;5063975;28;20262;-81
2023/09/14 06:43:48;;;;;;;6.07;2.10;;;8.30;99.90;;;;;;5073435;28;20883;-84
2023/09/14 06:46:14;;;;;;;6.77;2.33;;;8.30;99.90;;;;;;5086830;28;20777;-84
2023/09/14 06:48:42;;;;;;;5.23;2.03;;;8.40;99.90;;;;;;5072539;28;20693;-82
2023/09/14 06:51:09;;;;;;;3.40;1.70;;;8.50;99.90;;;;;;5088343;28;20298;-82
2023/09/14 06:53:36;;;;;;;4.37;1.70;;;8.60;99.90;;;;;;5072585;28;20220;-83
2023/09/14 06:56:07;;;;;;;4.30;2.17;;;8.70;99.90;;;;;;5070888;28;20236;-83
2023/09/14 06:58:34;;;;;;;2.97;1.70;;;8.80;99.90;;;;;;5085747;28;20228;-85
2023/09/14 07:01:04;;;;;;;3.13;1.70;;;8.90;99.90;;;;;;5085738;28;20285;-84
2023/09/14 07:03:31;;;;;;;3.93;1.73;;;8.90;99.90;;;;;;5084784;28;20256;-84
2023/09/14 07:06:00;;;;;;;5.57;1.93;;;9.00;99.90;;;;;;5071223;28;20229;-83
2023/09/14 07:08:27;;;;;;;3.07;1.73;;;9.20;99.90;;;;;;5066663;28;20229;-83
2023/09/14 07:10:54;;;;;;;2.93;1.80;;;9.20;99.90;;;;;;5067041;28;20229;-84
2023/09/14 07:13:21;;;;;;;4.13;1.80;;;9.30;99.90;;;;;;5086015;28;20217;-86
2023/09/14 07:15:48;;;;;;;4.93;1.60;;;9.40;99.90;;;;;;5065118;28;21121;-82
2023/09/14 07:18:27;;;;;;;4.07;1.70;;;9.40;99.90;;;;;;5062568;28;20229;-84
2023/09/14 07:20:54;;;;;;;3.93;1.63;;;9.50;99.90;;;;;;5074579;28;20356;-84
2023/09/14 07:23:22;;;;;;;4.83;1.70;;;9.60;99.90;;;;;;5065491;28;20221;-85
2023/09/14 07:25:49;;;;;;;4.27;1.50;;;9.70;99.90;;;;;;5085316;28;20242;-83
2023/09/14 07:28:17;;;;;;;2.57;1.43;;;9.80;99.90;;;;;;5085745;28;20221;-83
2023/09/14 07:30:44;;;;;;;3.93;1.20;;;9.90;99.90;;;;;;5070476;28;20272;-83
2023/09/14 07:33:11;;;;;;;2.60;1.40;;;10.00;99.90;;;;;;5071223;28;20316;-83
2023/09/14 07:35:39;;;;;;;4.57;1.40;;;10.00;99.90;;;;;;5093711;28;20347;-83
2023/09/14 07:38:08;;;;;;;2.90;1.37;;;10.10;99.90;;;;;;5061853;28;20271;-84
2023/09/14 07:40:37;;;;;;;2.90;1.50;;;10.20;99.90;;;;;;5083830;28;20244;-84
2023/09/14 07:43:05;;;;;;;2.50;1.20;;;10.30;99.90;;;;;;5082887;28;20223;-86
2023/09/14 07:45:33;;;;;;;4.37;1.10;;;10.40;99.90;;;;;;5089361;28;20233;-83
2023/09/14 07:48:00;;;;;;;1.63;1.20;;;10.40;99.90;;;;;;5067743;28;20218;-83
2023/09/14 07:50:27;;;;;;;3.40;1.07;;;10.50;99.90;;;;;;5071519;28;20235;-83
2023/09/14 07:52:54;;;;;;;3.30;1.40;;;10.80;99.90;;;;;;5093517;28;20774;-83
2023/09/14 07:55:20;;;;;;;3.37;1.47;;;11.20;99.90;;;;;;5086194;28;20702;-85
2023/09/14 07:57:48;;;;;;;1.97;0.90;;;11.70;99.90;;;;;;5068893;28;20240;-84
2023/09/14 08:00:15;;;;;;;5.17;1.30;;;12.20;99.90;;;;;;5086823;28;20222;-84
2023/09/14 08:02:42;;;;;;;3.07;1.30;;;12.70;99.90;;;;;;5071018;28;20245;-84
2023/09/14 08:05:09;;;;;;;3.80;1.07;;;13.10;99.90;;;;;;5069535;28;20855;-84
2023/09/14 08:07:36;;;;;;;1.73;1.00;;;13.60;99.90;;;;;;5086618;28;20216;-84
2023/09/14 08:10:02;;;;;;;2.33;0.90;;;13.90;99.90;;;;;;5084606;28;20225;-84
2023/09/14 08:12:29;;;;;;;3.77;1.27;;;14.30;99.90;;;;;;5066628;28;20222;-84
2023/09/14 08:14:57;;;;;;;3.17;1.23;;;14.70;99.90;;;;;;5084064;28;20710;-84
2023/09/14 08:17:24;;;;;;;2.30;1.17;;;15.10;99.90;;;;;;5063595;28;20602;-84
2023/09/14 08:19:50;;;;;;;2.27;1.20;;;15.70;99.90;;;;;;5068930;28;20230;-84
2023/09/14 08:22:22;;;;;;;5.03;1.10;;;16.40;99.90;;;;;;5087829;28;20217;-84
2023/09/14 08:24:49;;;;;;;1.97;1.10;;;17.00;99.90;;;;;;5086216;28;20222;-84
2023/09/14 08:27:16;;;;;;;2.93;1.13;;;17.70;99.90;;;;;;5064619;28;20222;-85
2023/09/14 08:29:43;;;;;;;2.50;1.10;;;18.40;99.90;;;;;;5062836;28;20293;-84
2023/09/14 08:32:11;;;;;;;2.63;0.80;;;18.90;99.90;;;;;;5082717;28;20223;-84
2023/09/14 08:34:38;;;;;;;1.60;1.00;;;19.50;99.90;;;;;;5063303;28;20769;-85
2023/09/14 08:37:09;;;;;;;4.22;1.10;;;20.00;99.90;;;;;;5066718;28;20228;-84
2023/09/14 08:39:36;;;;;;;2.35;0.88;;;20.50;99.90;;;;;;5067294;28;20283;-83
2023/09/14 08:42:03;;;;;;;2.92;1.00;;;21.00;99.90;;;;;;5086147;28;20219;-83
2023/09/14 08:44:34;;;;;;;1.10;0.88;;;21.30;99.90;;;;;;5069558;28;20604;-84
2023/09/14 08:47:02;;;;;;;2.58;1.08;;;21.70;99.90;;;;;;5090056;28;20229;-83
2023/09/14 08:49:34;;;;;;;5.45;1.00;;;22.10;99.50;;;;;;5070223;28;20287;-84
2023/09/14 08:52:02;;;;;;;2.30;0.82;;;22.40;97.60;;;;;;5067508;28;20218;-85
2023/09/14 08:54:30;;;;;;;2.10;0.95;;;22.60;97.30;;;;;;5066381;28;20218;-85
2023/09/14 08:56:57;;;;;;;3.25;0.98;;;22.70;96.30;;;;;;5066888;28;20800;-84
2023/09/14 08:59:24;;;;;;;2.00;0.80;;;22.90;96.90;;;;;;5064227;28;20234;-84
2023/09/14 09:01:52;;;;;;;3.33;1.02;;;23.10;97.00;;;;;;5065859;28;20282;-84
2023/09/14 09:04:19;;;;;;;2.47;0.90;;;23.40;95.60;;;;;;5066101;28;20234;-84
2023/09/14 09:06:48;;;;;;;2.03;0.90;;;23.60;95.40;;;;;;5084769;28;20891;-84
2023/09/14 09:09:21;;;;;;;2.90;1.00;;;23.70;94.60;;;;;;5070307;28;20808;-84
2023/09/14 09:11:50;;;;;;;2.00;0.80;;;24.00;94.00;;;;;;5069539;28;20907;-84
2023/09/14 09:14:17;;;;;;;1.73;0.80;;;24.30;93.90;;;;;;5081034;28;20610;-83
2023/09/14 09:16:44;;;;;;;2.58;1.00;;;24.50;94.10;;;;;;5069918;28;20244;-84
2023/09/14 09:19:11;;;;;;;1.98;0.80;;;24.70;92.90;;;;;;5066987;28;20234;-84
2023/09/14 09:21:39;;;;;;;4.00;1.00;;;25.00;92.60;;;;;;5070859;28;20302;-83
2023/09/14 09:24:08;;;;;;;3.67;0.82;;;25.20;92.70;;;;;;5068133;28;20222;-85
2023/09/14 09:26:36;;;;;;;1.75;0.70;;;25.30;90.30;;;;;;5087459;28;20301;-83
2023/09/14 09:29:15;;;;;;;1.95;0.70;;;25.50;91.00;;;;;;5088127;28;20227;-83
2023/09/14 09:31:42;;;;;;;2.55;0.80;;;25.60;89.60;;;;;;5065196;28;22058;-83
2023/09/14 09:34:10;;;;;;;4.45;0.80;;;25.80;91.00;;;;;;5087839;28;20221;-84
2023/09/14 09:36:37;;;;;;;2.97;1.00;;;26.10;88.60;;;;;;5082956;28;20296;-86
2023/09/14 09:39:05;;;;;;;4.20;0.95;;;26.30;89.40;;;;;;5085230;28;20226;-83
2023/09/14 09:41:34;;;;;;;2.25;0.90;;;26.50;87.00;;;;;;5063699;28;20218;-85
2023/09/14 09:44:06;;;;;;;2.45;0.70;;;26.60;81.70;;;;;;5068545;28;20704;-85
2023/09/14 09:46:35;;;;;;;1.33;0.68;;;26.50;82.40;;;;;;5084129;28;20215;-85
2023/09/14 09:49:03;;;;;;;2.38;0.80;;;26.60;85.30;;;;;;5079965;28;20426;-85
2023/09/14 09:51:30;;;;;;;2.30;0.85;;;26.60;83.80;;;;;;5089031;28;20283;-85
2023/09/14 09:54:05;;;;;;;3.50;0.70;;;26.60;82.60;;;;;;5062926;28;20225;-84
2023/09/14 09:56:35;;;;;;;1.50;0.80;;;26.50;75.20;;;;;;5063595;28;20225;-85
2023/09/14 09:59:04;;;;;;;2.75;0.77;;;26.40;78.90;;;;;;5079127;28;20707;-84
2023/09/14 10:01:35;;;;;;;3.30;0.90;;;26.20;80.70;;;;;;5083066;28;20238;-81
2023/09/14 10:04:02;;;;;;;2.97;1.17;;;26.10;79.70;;;;;;5080191;28;20469;-85
2023/09/14 10:06:29;;;;;;;3.00;0.90;;;26.00;79.80;;;;;;5079212;28;20887;-84
2023/09/14 10:08:57;;;;;;;2.38;0.70;;;25.80;80.00;;;;;;5062491;28;20219;-84
2023/09/14 10:11:27;;;;;;;3.33;0.80;;;25.60;81.30;;;;;;5080439;28;20230;-85
2023/09/14 10:13:57;;;;;;;3.55;1.00;;;25.60;78.80;;;;;;5064981;28;20223;-84
2023/09/14 10:16:24;;;;;;;4.32;0.90;;;25.50;76.60;;;;;;5066829;28;20249;-84
2023/09/14 10:18:55;;;;;;;2.13;0.90;;;25.40;79.20;;;;;;5085565;28;20258;-84
2023/09/14 10:21:24;;;;;;;2.72;0.80;;;25.30;79.40;;;;;;5069984;28;20304;-84
2023/09/14 10:23:52;;;;;;;2.25;0.55;;;25.20;80.70;;;;;;5067751;28;20786;-84
2023/09/14 10:26:19;;;;;;;12.40;1.00;;;25.20;80.50;;;;;;5066959;28;20254;-86
2023/09/14 10:28:47;;;;;;;2.65;0.93;;;25.30;79.50;;;;;;5067153;28;20786;-85
2023/09/14 10:31:20;;;;;;;2.30;0.80;;;25.30;80.30;;;;;;5084501;28;20225;-84
2023/09/14 10:33:49;;;;;;;1.17;0.77;;;25.40;79.20;;;;;;5083011;28;20234;-85
2023/09/14 10:36:17;;;;;;;3.20;0.77;;;25.40;79.10;;;;;;5067977;28;20852;-84
2023/09/14 10:38:45;;;;;;;3.45;1.00;;;25.30;78.70;;;;;;5068457;28;20222;-84
2023/09/14 10:41:13;;;;;;;3.60;1.00;;;25.20;78.30;;;;;;5079772;28;20724;-83
2023/09/14 10:43:41;;;;;;;1.55;0.82;;;24.90;77.40;;;;;;5057048;28;20226;-82
2023/09/14 10:46:18;;;;;;;2.88;0.70;;;24.70;77.30;;;;;;5080443;28;20234;-82
2023/09/14 10:48:45;;;;;;;2.15;0.88;;;24.50;76.40;;;;;;5084872;28;20803;-83
2023/09/14 10:51:13;;;;;;;1.00;0.52;;;24.20;78.50;;;;;;5072967;28;20219;-82
2023/09/14 10:53:41;;;;;;;2.22;0.70;;;24.20;79.60;;;;;;5086173;28;20215;-82
2023/09/14 10:56:20;;;;;;;2.33;0.85;;;24.30;81.50;;;;;;5066790;28;20227;-83
2023/09/14 10:58:51;;;;;;;3.10;0.90;;;24.50;79.90;;;;;;5092954;28;20250;-83
2023/09/14 11:01:26;;;;;;;1.98;1.00;;;24.70;80.10;;;;;;5071310;28;20230;-83
2023/09/14 11:04:13;;;;;;;2.40;0.98;;;25.10;74.60;;;;;;5071471;28;20299;-83
2023/09/14 11:06:44;;;;;;;3.40;0.90;;;25.40;75.40;;;;;;5074999;28;20218;-83
2023/09/14 11:09:13;;;;;;;4.40;0.98;;;25.70;77.40;;;;;;5073372;28;20242;-84
2023/09/14 11:11:41;;;;;;;3.80;1.00;;;26.00;77.00;;;;;;5083149;28;20707;-85
2023/09/14 11:14:09;;;;;;;2.15;0.70;;;26.20;76.70;;;;;;5085215;28;20531;-83
2023/09/14 11:16:46;;;;;;;1.40;0.70;;;26.40;75.10;;;;;;5090144;28;20329;-84
2023/09/14 11:19:43;;;;;;;2.00;0.73;;;26.60;73.40;;;;;;5067198;28;20218;-83
2023/09/14 11:22:14;;;;;;;4.25;0.95;;;26.60;68.40;;;;;;5088556;28;20311;-83
2023/09/14 11:24:41;;;;;;;2.15;0.85;;;26.50;69.70;;;;;;5072493;28;20237;-84
2023/09/14 11:27:09;;;;;;;3.30;0.77;;;26.30;71.10;;;;;;5089777;28;20269;-83
2023/09/14 11:29:44;;;;;;;2.92;1.00;;;26.00;70.10;;;;;;5087650;28;20228;-83
2023/09/14 11:32:21;;;;;;;2.28;0.70;;;25.70;68.90;;;;;;5083458;28;20252;-83
2023/09/14 11:34:48;;;;;;;2.08;0.80;;;25.40;70.70;;;;;;5088456;28;20222;-84
2023/09/14 11:37:16;;;;;;;3.25;0.85;;;25.10;71.90;;;;;;5069617;28;20255;-85
2023/09/14 11:39:52;;;;;;;1.95;0.93;;;24.80;70.90;;;;;;5084760;28;20246;-83
2023/09/14 11:42:19;;;;;;;3.60;0.90;;;24.40;71.80;;;;;;5084493;28;20214;-83
2023/09/14 11:44:48;;;;;;;4.35;0.90;;;24.10;69.50;;;;;;5070333;28;20720;-83
2023/09/14 11:47:17;;;;;;;3.05;0.85;;;23.80;72.20;;;;;;5085763;28;20708;-83
2023/09/14 11:49:50;;;;;;;2.40;0.80;;;23.50;73.80;;;;;;5083420;28;20692;-84
2023/09/14 11:52:19;;;;;;;2.63;0.70;;;23.30;72.00;;;;;;5066676;28;20222;-82
2023/09/14 11:54:48;;;;;;;2.53;0.80;;;23.00;74.80;;;;;;5085751;28;20229;-82
2023/09/14 11:57:17;;;;;;;3.50;0.90;;;22.80;75.50;;;;;;5068689;28;20654;-84
2023/09/14 11:59:43;;;;;;;3.00;0.90;;;22.70;75.10;;;;;;5070553;28;20701;-83
2023/09/14 12:02:11;;;;;;;4.20;0.90;;;22.60;75.80;;;;;;5085551;28;20321;-83
2023/09/14 12:04:41;;;;;;;4.30;1.20;;;22.40;75.60;;;;;;5068859;28;20522;-83
2023/09/14 12:07:10;;;;;;;1.98;0.70;;;22.40;75.40;;;;;;5070843;28;20223;-84
2023/09/14 12:09:38;;;;;;;3.05;0.70;;;22.50;77.90;;;;;;5091991;28;20239;-84
2023/09/14 12:12:06;;;;;;;3.53;0.80;;;22.60;79.30;;;;;;5080072;28;20226;-83
2023/09/14 12:14:38;;;;;;;2.03;0.60;;;22.80;77.90;;;;;;5070338;28;20294;-83
2023/09/14 12:17:19;;;;;;;3.88;0.70;;;23.00;77.10;;;;;;5087523;28;20259;-82
2023/09/14 12:19:50;;;;;;;2.92;0.70;;;23.10;73.40;;;;;;5070986;28;20225;-83
2023/09/14 12:22:19;;;;;;;1.88;0.70;;;23.10;74.50;;;;;;5076369;28;20235;-82
2023/09/14 12:24:47;;;;;;;2.85;0.80;;;23.10;74.20;;;;;;5090230;28;20214;-84
2023/09/14 12:27:14;;;;;;;2.42;0.90;;;22.90;73.50;;;;;;5066624;28;20217;-83
2023/09/14 12:29:43;;;;;;;2.78;0.77;;;22.70;73.00;;;;;;5063493;28;20924;-82
2023/09/14 12:32:10;;;;;;;3.35;0.95;;;22.40;72.30;;;;;;5087678;28;20230;-82
2023/09/14 12:34:37;;;;;;;1.73;0.90;;;22.10;74.10;;;;;;5077109;28;20222;-83
2023/09/14 12:37:06;;;;;;;2.08;0.75;;;21.90;75.80;;;;;;5066596;28;20409;-83
2023/09/14 12:39:34;;;;;;;2.83;0.90;;;21.60;73.90;;;;;;5084198;28;20688;-85
2023/09/14 12:42:02;;;;;;;2.92;0.90;;;21.40;76.50;;;;;;5067232;28;20962;-84
2023/09/14 12:44:29;;;;;;;1.98;0.95;;;21.20;76.00;;;;;;5065896;28;20225;-83
2023/09/14 12:46:55;;;;;;;1.88;0.90;;;21.00;77.60;;;;;;5060452;28;20246;-84
2023/09/14 12:49:23;;;;;;;2.17;1.00;;;20.80;77.00;;;;;;5085157;28;20700;-83
2023/09/14 12:51:51;;;;;;;2.00;0.77;;;20.70;77.00;;;;;;5084697;28;20225;-85
2023/09/14 12:54:25;;;;;;;3.95;0.80;;;20.60;79.30;;;;;;5067503;28;20286;-83
2023/09/14 12:56:52;;;;;;;4.82;0.82;;;20.60;79.70;;;;;;5067734;28;20229;-82
2023/09/14 12:59:19;;;;;;;2.65;0.82;;;20.60;79.70;;;;;;5080051;28;20222;-84